KELD/ELD METAR and TAF weather

Enter ICAO airport designator
Station Type Date Time Source
KELD METAR 2021/03/04 23:53 UTC NOAA

KELD 042353Z AUTO 13005KT 10SM CLR 19/01 A3005 RMK AO2 SLP174 T01890011 10222 20189 55011


Station Type Date Time Source
KELD Decoded METAR 2021/03/04 23:53 UTC NOAA

SOUTH ARKANSAS REGIONAL, AR, United States (KELD) 33-13N 092-49W 81M
Mar 04, 2021 - 06:53 PM EST / 2021.03.04 2353 UTC
Wind: from the SE (130 degrees) at 6 MPH (5 KT):0
Visibility: 10 mile(s):0
Sky conditions: clear
Temperature: 66.0 F (18.9 C)
Dew Point: 34.0 F (1.1 C)
Relative Humidity: 30%
Pressure (altimeter): 30.05 in. Hg (1017 hPa)
Pressure tendency: 0.03 inches (1.1 hPa) lower than three hours ago
ob: KELD 042353Z AUTO 13005KT 10SM CLR 19/01 A3005 RMK AO2 SLP174 T01890011 10222 20189 55011
cycle: 0

Station Type Date Time Source
KELD TAF 2021/03/04 18:36 UTC NOAA

TAF KELD 041734Z 0418/0518 VRB04KT P6SM SKC
FM050000 00000KT P6SM SCT180 SCT250
FM050300 00000KT P6SM BKN180 BKN250
FM051500 07006KT P6SM SCT040 BKN080

Example: see airport list